sensor_id;sensor_type;location;lat;lon;timestamp;P1;durP1;ratioP1;P2;durP2;ratioP2
37239;SDS011;23130;48.760;9.178;2022-12-18T00:01:35;62.85;;;27.27;;
37239;SDS011;23130;48.760;9.178;2022-12-18T00:04:02;63.42;;;28.15;;
37239;SDS011;23130;48.760;9.178;2022-12-18T00:06:29;73.82;;;29.60;;
37239;SDS011;23130;48.760;9.178;2022-12-18T00:08:57;55.92;;;28.48;;
37239;SDS011;23130;48.760;9.178;2022-12-18T00:11:25;70.40;;;27.98;;
37239;SDS011;23130;48.760;9.178;2022-12-18T00:13:53;63.22;;;26.33;;
37239;SDS011;23130;48.760;9.178;2022-12-18T00:16:21;60.40;;;25.83;;
37239;SDS011;23130;48.760;9.178;2022-12-18T00:18:52;64.05;;;26.80;;
37239;SDS011;23130;48.760;9.178;2022-12-18T00:21:19;66.57;;;27.67;;
37239;SDS011;23130;48.760;9.178;2022-12-18T00:23:46;60.83;;;26.73;;
37239;SDS011;23130;48.760;9.178;2022-12-18T00:26:13;58.85;;;25.17;;
37239;SDS011;23130;48.760;9.178;2022-12-18T00:28:44;57.13;;;26.25;;
37239;SDS011;23130;48.760;9.178;2022-12-18T00:31:11;66.60;;;28.92;;
37239;SDS011;23130;48.760;9.178;2022-12-18T00:33:39;54.72;;;24.70;;
37239;SDS011;23130;48.760;9.178;2022-12-18T00:36:26;67.22;;;28.35;;
37239;SDS011;23130;48.760;9.178;2022-12-18T00:38:55;57.95;;;25.27;;
37239;SDS011;23130;48.760;9.178;2022-12-18T00:41:23;60.33;;;28.92;;
37239;SDS011;23130;48.760;9.178;2022-12-18T00:44:09;57.95;;;26.08;;
37239;SDS011;23130;48.760;9.178;2022-12-18T00:46:36;59.22;;;27.15;;
37239;SDS011;23130;48.760;9.178;2022-12-18T00:49:02;62.53;;;26.67;;
37239;SDS011;23130;48.760;9.178;2022-12-18T00:51:28;60.33;;;24.27;;
37239;SDS011;23130;48.760;9.178;2022-12-18T00:53:54;54.20;;;26.10;;
37239;SDS011;23130;48.760;9.178;2022-12-18T00:56:19;55.53;;;25.02;;
37239;SDS011;23130;48.760;9.178;2022-12-18T00:58:46;62.53;;;26.70;;
37239;SDS011;23130;48.760;9.178;2022-12-18T01:01:11;75.68;;;29.15;;
37239;SDS011;23130;48.760;9.178;2022-12-18T01:03:37;68.45;;;27.75;;
37239;SDS011;23130;48.760;9.178;2022-12-18T01:06:09;66.22;;;26.85;;
37239;SDS011;23130;48.760;9.178;2022-12-18T01:08:37;65.43;;;26.45;;
37239;SDS011;23130;48.760;9.178;2022-12-18T01:11:10;63.20;;;27.08;;
37239;SDS011;23130;48.760;9.178;2022-12-18T01:13:37;64.38;;;24.83;;
37239;SDS011;23130;48.760;9.178;2022-12-18T01:16:04;55.70;;;25.73;;
37239;SDS011;23130;48.760;9.178;2022-12-18T01:18:30;61.55;;;25.50;;
37239;SDS011;23130;48.760;9.178;2022-12-18T01:20:56;55.58;;;24.58;;
37239;SDS011;23130;48.760;9.178;2022-12-18T01:23:21;51.40;;;23.38;;
37239;SDS011;23130;48.760;9.178;2022-12-18T01:25:47;58.17;;;25.00;;
37239;SDS011;23130;48.760;9.178;2022-12-18T01:28:13;51.92;;;22.75;;
37239;SDS011;23130;48.760;9.178;2022-12-18T01:30:38;54.30;;;23.98;;
37239;SDS011;23130;48.760;9.178;2022-12-18T01:33:04;62.10;;;26.08;;
37239;SDS011;23130;48.760;9.178;2022-12-18T01:35:30;59.08;;;26.45;;
37239;SDS011;23130;48.760;9.178;2022-12-18T01:37:56;52.25;;;24.13;;
37239;SDS011;23130;48.760;9.178;2022-12-18T01:40:22;56.72;;;24.23;;
37239;SDS011;23130;48.760;9.178;2022-12-18T01:42:53;62.50;;;25.58;;
37239;SDS011;23130;48.760;9.178;2022-12-18T01:47:55;55.42;;;24.55;;
37239;SDS011;23130;48.760;9.178;2022-12-18T01:50:34;60.85;;;24.90;;
37239;SDS011;23130;48.760;9.178;2022-12-18T01:58:14;49.28;;;21.38;;
37239;SDS011;23130;48.760;9.178;2022-12-18T02:00:41;55.30;;;23.90;;
37239;SDS011;23130;48.760;9.178;2022-12-18T02:03:06;46.55;;;21.45;;
37239;SDS011;23130;48.760;9.178;2022-12-18T02:16:14;56.90;;;21.95;;
37239;SDS011;23130;48.760;9.178;2022-12-18T02:24:17;48.83;;;20.83;;
37239;SDS011;23130;48.760;9.178;2022-12-18T02:29:26;56.45;;;24.08;;
37239;SDS011;23130;48.760;9.178;2022-12-18T02:34:25;50.95;;;21.23;;
37239;SDS011;23130;48.760;9.178;2022-12-18T02:36:55;56.13;;;22.30;;
37239;SDS011;23130;48.760;9.178;2022-12-18T02:39:23;54.35;;;22.15;;
37239;SDS011;23130;48.760;9.178;2022-12-18T02:41:51;49.20;;;19.75;;
37239;SDS011;23130;48.760;9.178;2022-12-18T02:44:17;54.13;;;19.50;;
37239;SDS011;23130;48.760;9.178;2022-12-18T02:46:46;45.10;;;17.75;;
37239;SDS011;23130;48.760;9.178;2022-12-18T02:49:31;45.33;;;17.70;;
37239;SDS011;23130;48.760;9.178;2022-12-18T02:58:05;43.58;;;17.92;;
37239;SDS011;23130;48.760;9.178;2022-12-18T03:00:41;45.33;;;17.38;;
37239;SDS011;23130;48.760;9.178;2022-12-18T03:03:18;44.45;;;16.65;;
37239;SDS011;23130;48.760;9.178;2022-12-18T03:05:53;42.03;;;16.92;;
37239;SDS011;23130;48.760;9.178;2022-12-18T03:08:26;37.53;;;16.98;;
37239;SDS011;23130;48.760;9.178;2022-12-18T03:10:56;45.35;;;18.13;;
37239;SDS011;23130;48.760;9.178;2022-12-18T03:13:46;46.05;;;20.60;;
37239;SDS011;23130;48.760;9.178;2022-12-18T03:16:18;43.83;;;17.88;;
37239;SDS011;23130;48.760;9.178;2022-12-18T03:18:50;46.55;;;19.83;;
37239;SDS011;23130;48.760;9.178;2022-12-18T03:21:28;40.25;;;17.45;;
37239;SDS011;23130;48.760;9.178;2022-12-18T03:23:58;39.03;;;17.58;;
37239;SDS011;23130;48.760;9.178;2022-12-18T03:26:25;45.50;;;18.75;;
37239;SDS011;23130;48.760;9.178;2022-12-18T03:28:53;60.70;;;19.85;;
37239;SDS011;23130;48.760;9.178;2022-12-18T03:31:24;43.65;;;17.77;;
37239;SDS011;23130;48.760;9.178;2022-12-18T03:33:54;41.35;;;17.73;;
37239;SDS011;23130;48.760;9.178;2022-12-18T03:36:22;45.53;;;16.58;;
37239;SDS011;23130;48.760;9.178;2022-12-18T03:38:48;37.80;;;18.25;;
37239;SDS011;23130;48.760;9.178;2022-12-18T03:41:19;45.25;;;19.40;;
37239;SDS011;23130;48.760;9.178;2022-12-18T03:44:11;39.60;;;18.00;;
37239;SDS011;23130;48.760;9.178;2022-12-18T03:54:54;43.45;;;18.15;;
37239;SDS011;23130;48.760;9.178;2022-12-18T03:57:25;40.80;;;17.10;;
37239;SDS011;23130;48.760;9.178;2022-12-18T03:59:55;40.55;;;17.08;;
37239;SDS011;23130;48.760;9.178;2022-12-18T04:02:26;42.05;;;17.63;;
37239;SDS011;23130;48.760;9.178;2022-12-18T04:04:53;38.40;;;18.17;;
37239;SDS011;23130;48.760;9.178;2022-12-18T04:07:23;40.85;;;18.10;;
37239;SDS011;23130;48.760;9.178;2022-12-18T04:09:50;42.28;;;17.88;;
37239;SDS011;23130;48.760;9.178;2022-12-18T04:12:19;46.95;;;18.55;;
37239;SDS011;23130;48.760;9.178;2022-12-18T04:14:45;45.10;;;18.80;;
37239;SDS011;23130;48.760;9.178;2022-12-18T04:17:12;44.58;;;18.50;;
37239;SDS011;23130;48.760;9.178;2022-12-18T04:19:37;42.50;;;17.10;;
37239;SDS011;23130;48.760;9.178;2022-12-18T04:22:03;34.55;;;16.42;;
37239;SDS011;23130;48.760;9.178;2022-12-18T04:24:28;33.75;;;16.67;;
37239;SDS011;23130;48.760;9.178;2022-12-18T04:26:54;45.10;;;17.98;;
37239;SDS011;23130;48.760;9.178;2022-12-18T04:29:19;43.25;;;19.13;;
37239;SDS011;23130;48.760;9.178;2022-12-18T04:31:45;41.05;;;18.00;;
37239;SDS011;23130;48.760;9.178;2022-12-18T04:34:10;46.08;;;18.20;;
37239;SDS011;23130;48.760;9.178;2022-12-18T04:36:36;49.03;;;19.23;;
37239;SDS011;23130;48.760;9.178;2022-12-18T04:39:02;43.03;;;19.05;;
37239;SDS011;23130;48.760;9.178;2022-12-18T04:41:27;46.78;;;19.83;;
37239;SDS011;23130;48.760;9.178;2022-12-18T04:43:53;49.65;;;18.45;;
37239;SDS011;23130;48.760;9.178;2022-12-18T04:46:18;47.63;;;20.25;;
37239;SDS011;23130;48.760;9.178;2022-12-18T04:48:45;42.00;;;18.42;;
37239;SDS011;23130;48.760;9.178;2022-12-18T04:51:11;41.63;;;18.23;;
37239;SDS011;23130;48.760;9.178;2022-12-18T04:53:37;40.97;;;17.83;;
37239;SDS011;23130;48.760;9.178;2022-12-18T04:56:13;48.75;;;19.38;;
37239;SDS011;23130;48.760;9.178;2022-12-18T04:58:40;44.65;;;19.10;;
37239;SDS011;23130;48.760;9.178;2022-12-18T05:01:07;40.92;;;17.45;;
37239;SDS011;23130;48.760;9.178;2022-12-18T05:03:34;41.67;;;17.15;;
37239;SDS011;23130;48.760;9.178;2022-12-18T05:06:00;46.05;;;18.73;;
37239;SDS011;23130;48.760;9.178;2022-12-18T05:08:26;47.95;;;20.08;;
37239;SDS011;23130;48.760;9.178;2022-12-18T05:11:02;43.38;;;18.75;;
37239;SDS011;23130;48.760;9.178;2022-12-18T05:13:29;41.40;;;19.55;;
37239;SDS011;23130;48.760;9.178;2022-12-18T05:15:55;51.00;;;19.63;;
37239;SDS011;23130;48.760;9.178;2022-12-18T05:18:22;45.75;;;18.45;;
37239;SDS011;23130;48.760;9.178;2022-12-18T05:20:48;38.17;;;19.02;;
37239;SDS011;23130;48.760;9.178;2022-12-18T05:23:14;46.83;;;17.92;;
37239;SDS011;23130;48.760;9.178;2022-12-18T05:25:40;40.25;;;16.70;;
37239;SDS011;23130;48.760;9.178;2022-12-18T05:28:05;45.78;;;17.00;;
37239;SDS011;23130;48.760;9.178;2022-12-18T05:30:31;39.58;;;17.27;;
37239;SDS011;23130;48.760;9.178;2022-12-18T05:32:57;43.65;;;16.95;;
37239;SDS011;23130;48.760;9.178;2022-12-18T05:35:22;44.38;;;18.38;;
37239;SDS011;23130;48.760;9.178;2022-12-18T05:37:48;40.78;;;16.52;;
37239;SDS011;23130;48.760;9.178;2022-12-18T05:40:13;44.88;;;18.77;;
37239;SDS011;23130;48.760;9.178;2022-12-18T05:42:39;41.28;;;16.50;;
37239;SDS011;23130;48.760;9.178;2022-12-18T05:45:05;39.60;;;16.80;;
37239;SDS011;23130;48.760;9.178;2022-12-18T05:47:31;39.33;;;19.33;;
37239;SDS011;23130;48.760;9.178;2022-12-18T05:49:56;44.67;;;18.23;;
37239;SDS011;23130;48.760;9.178;2022-12-18T05:52:22;34.67;;;15.68;;
37239;SDS011;23130;48.760;9.178;2022-12-18T05:54:48;43.13;;;17.88;;
37239;SDS011;23130;48.760;9.178;2022-12-18T05:57:13;48.40;;;17.25;;
37239;SDS011;23130;48.760;9.178;2022-12-18T05:59:39;45.95;;;17.42;;
37239;SDS011;23130;48.760;9.178;2022-12-18T06:02:04;43.00;;;18.92;;
37239;SDS011;23130;48.760;9.178;2022-12-18T06:04:30;38.25;;;16.73;;
37239;SDS011;23130;48.760;9.178;2022-12-18T06:06:56;38.65;;;18.55;;
37239;SDS011;23130;48.760;9.178;2022-12-18T06:09:21;37.42;;;15.70;;
37239;SDS011;23130;48.760;9.178;2022-12-18T06:11:47;41.42;;;17.45;;
37239;SDS011;23130;48.760;9.178;2022-12-18T06:14:12;36.72;;;14.68;;
37239;SDS011;23130;48.760;9.178;2022-12-18T06:16:38;39.70;;;17.25;;
37239;SDS011;23130;48.760;9.178;2022-12-18T06:19:04;39.53;;;16.25;;
37239;SDS011;23130;48.760;9.178;2022-12-18T06:21:30;32.50;;;13.40;;
37239;SDS011;23130;48.760;9.178;2022-12-18T06:23:56;39.13;;;15.35;;
37239;SDS011;23130;48.760;9.178;2022-12-18T06:26:22;36.75;;;16.80;;
37239;SDS011;23130;48.760;9.178;2022-12-18T06:28:47;38.58;;;16.70;;
37239;SDS011;23130;48.760;9.178;2022-12-18T06:31:13;37.13;;;15.40;;
37239;SDS011;23130;48.760;9.178;2022-12-18T06:33:39;35.70;;;15.75;;
37239;SDS011;23130;48.760;9.178;2022-12-18T06:36:06;38.30;;;16.65;;
37239;SDS011;23130;48.760;9.178;2022-12-18T06:38:37;49.25;;;17.48;;
37239;SDS011;23130;48.760;9.178;2022-12-18T06:41:07;38.83;;;16.65;;
37239;SDS011;23130;48.760;9.178;2022-12-18T06:43:38;42.03;;;16.70;;
37239;SDS011;23130;48.760;9.178;2022-12-18T06:46:04;33.08;;;14.88;;
37239;SDS011;23130;48.760;9.178;2022-12-18T06:48:30;32.53;;;15.05;;
37239;SDS011;23130;48.760;9.178;2022-12-18T06:50:56;33.58;;;15.55;;
37239;SDS011;23130;48.760;9.178;2022-12-18T06:53:22;33.05;;;13.65;;
37239;SDS011;23130;48.760;9.178;2022-12-18T06:55:48;31.25;;;14.43;;
37239;SDS011;23130;48.760;9.178;2022-12-18T06:58:13;43.75;;;17.13;;
37239;SDS011;23130;48.760;9.178;2022-12-18T07:00:39;35.15;;;16.38;;
37239;SDS011;23130;48.760;9.178;2022-12-18T07:03:05;38.63;;;15.73;;
37239;SDS011;23130;48.760;9.178;2022-12-18T07:05:31;32.53;;;15.75;;
37239;SDS011;23130;48.760;9.178;2022-12-18T07:07:57;35.35;;;14.27;;
37239;SDS011;23130;48.760;9.178;2022-12-18T07:10:23;34.75;;;15.32;;
37239;SDS011;23130;48.760;9.178;2022-12-18T07:12:48;36.28;;;14.75;;
37239;SDS011;23130;48.760;9.178;2022-12-18T07:15:14;37.58;;;14.95;;
37239;SDS011;23130;48.760;9.178;2022-12-18T07:17:39;35.42;;;15.80;;
37239;SDS011;23130;48.760;9.178;2022-12-18T07:20:05;38.08;;;16.27;;
37239;SDS011;23130;48.760;9.178;2022-12-18T07:22:31;35.13;;;15.05;;
37239;SDS011;23130;48.760;9.178;2022-12-18T07:24:57;39.40;;;15.20;;
37239;SDS011;23130;48.760;9.178;2022-12-18T07:27:22;41.38;;;16.42;;
37239;SDS011;23130;48.760;9.178;2022-12-18T07:29:48;32.55;;;15.23;;
37239;SDS011;23130;48.760;9.178;2022-12-18T07:32:13;34.42;;;15.10;;
37239;SDS011;23130;48.760;9.178;2022-12-18T07:34:39;34.75;;;14.90;;
37239;SDS011;23130;48.760;9.178;2022-12-18T07:37:04;43.08;;;15.27;;
37239;SDS011;23130;48.760;9.178;2022-12-18T07:39:30;39.92;;;16.10;;
37239;SDS011;23130;48.760;9.178;2022-12-18T07:41:56;42.30;;;17.35;;
37239;SDS011;23130;48.760;9.178;2022-12-18T07:44:40;34.83;;;14.10;;
37239;SDS011;23130;48.760;9.178;2022-12-18T07:47:05;31.92;;;15.07;;
37239;SDS011;23130;48.760;9.178;2022-12-18T07:49:31;49.38;;;18.02;;
37239;SDS011;23130;48.760;9.178;2022-12-18T07:51:57;43.30;;;16.63;;
37239;SDS011;23130;48.760;9.178;2022-12-18T07:54:23;39.60;;;17.20;;
37239;SDS011;23130;48.760;9.178;2022-12-18T07:56:50;40.08;;;17.98;;
37239;SDS011;23130;48.760;9.178;2022-12-18T07:59:16;34.10;;;14.77;;
37239;SDS011;23130;48.760;9.178;2022-12-18T08:01:42;36.13;;;15.63;;
37239;SDS011;23130;48.760;9.178;2022-12-18T08:04:08;39.70;;;14.95;;
37239;SDS011;23130;48.760;9.178;2022-12-18T08:06:34;32.70;;;14.45;;
37239;SDS011;23130;48.760;9.178;2022-12-18T08:08:59;37.65;;;16.48;;
37239;SDS011;23130;48.760;9.178;2022-12-18T08:11:26;39.83;;;16.27;;
37239;SDS011;23130;48.760;9.178;2022-12-18T08:13:53;38.47;;;14.82;;
37239;SDS011;23130;48.760;9.178;2022-12-18T08:16:19;38.40;;;15.55;;
37239;SDS011;23130;48.760;9.178;2022-12-18T08:18:46;33.00;;;14.23;;
37239;SDS011;23130;48.760;9.178;2022-12-18T08:21:15;37.42;;;14.40;;
37239;SDS011;23130;48.760;9.178;2022-12-18T08:23:43;30.80;;;14.88;;
37239;SDS011;23130;48.760;9.178;2022-12-18T08:26:13;36.85;;;17.27;;
37239;SDS011;23130;48.760;9.178;2022-12-18T08:28:39;38.67;;;15.05;;
37239;SDS011;23130;48.760;9.178;2022-12-18T08:31:05;37.38;;;17.02;;
37239;SDS011;23130;48.760;9.178;2022-12-18T08:33:32;41.00;;;17.33;;
37239;SDS011;23130;48.760;9.178;2022-12-18T08:35:59;43.55;;;17.83;;
37239;SDS011;23130;48.760;9.178;2022-12-18T08:38:25;37.03;;;15.43;;
37239;SDS011;23130;48.760;9.178;2022-12-18T08:40:57;42.25;;;16.88;;
37239;SDS011;23130;48.760;9.178;2022-12-18T08:43:24;38.55;;;15.48;;
37239;SDS011;23130;48.760;9.178;2022-12-18T08:46:08;36.53;;;15.43;;
37239;SDS011;23130;48.760;9.178;2022-12-18T08:48:34;32.42;;;15.70;;
37239;SDS011;23130;48.760;9.178;2022-12-18T08:50:59;38.80;;;15.93;;
37239;SDS011;23130;48.760;9.178;2022-12-18T08:53:25;40.63;;;16.92;;
37239;SDS011;23130;48.760;9.178;2022-12-18T08:55:52;32.38;;;14.93;;
37239;SDS011;23130;48.760;9.178;2022-12-18T08:58:18;37.10;;;15.48;;
37239;SDS011;23130;48.760;9.178;2022-12-18T09:00:44;39.60;;;15.77;;
37239;SDS011;23130;48.760;9.178;2022-12-18T09:03:14;38.45;;;17.40;;
37239;SDS011;23130;48.760;9.178;2022-12-18T09:05:41;41.72;;;17.75;;
37239;SDS011;23130;48.760;9.178;2022-12-18T09:08:07;44.40;;;17.75;;
37239;SDS011;23130;48.760;9.178;2022-12-18T09:10:45;45.22;;;17.80;;
37239;SDS011;23130;48.760;9.178;2022-12-18T09:13:12;41.33;;;18.75;;
37239;SDS011;23130;48.760;9.178;2022-12-18T09:15:44;41.38;;;17.50;;
37239;SDS011;23130;48.760;9.178;2022-12-18T09:18:12;40.45;;;17.08;;
37239;SDS011;23130;48.760;9.178;2022-12-18T09:20:39;50.60;;;20.52;;
37239;SDS011;23130;48.760;9.178;2022-12-18T09:23:05;47.40;;;18.52;;
37239;SDS011;23130;48.760;9.178;2022-12-18T09:25:32;46.17;;;19.17;;
37239;SDS011;23130;48.760;9.178;2022-12-18T09:27:59;45.95;;;19.40;;
37239;SDS011;23130;48.760;9.178;2022-12-18T09:30:25;49.00;;;19.77;;
37239;SDS011;23130;48.760;9.178;2022-12-18T09:32:51;50.58;;;21.70;;
37239;SDS011;23130;48.760;9.178;2022-12-18T09:35:18;52.25;;;20.50;;
37239;SDS011;23130;48.760;9.178;2022-12-18T09:37:43;48.67;;;21.10;;
37239;SDS011;23130;48.760;9.178;2022-12-18T09:40:13;46.30;;;21.48;;
37239;SDS011;23130;48.760;9.178;2022-12-18T09:42:41;48.65;;;22.73;;
37239;SDS011;23130;48.760;9.178;2022-12-18T09:45:13;47.50;;;21.23;;
37239;SDS011;23130;48.760;9.178;2022-12-18T09:47:40;59.42;;;25.30;;
37239;SDS011;23130;48.760;9.178;2022-12-18T09:50:35;51.65;;;24.45;;
37239;SDS011;23130;48.760;9.178;2022-12-18T09:53:06;58.58;;;25.27;;
37239;SDS011;23130;48.760;9.178;2022-12-18T09:55:45;56.25;;;24.23;;
37239;SDS011;23130;48.760;9.178;2022-12-18T10:00:53;61.42;;;23.40;;
37239;SDS011;23130;48.760;9.178;2022-12-18T10:03:20;59.58;;;26.33;;
37239;SDS011;23130;48.760;9.178;2022-12-18T10:11:21;56.67;;;25.30;;
37239;SDS011;23130;48.760;9.178;2022-12-18T10:16:57;49.97;;;20.65;;
37239;SDS011;23130;48.760;9.178;2022-12-18T10:22:03;54.53;;;24.17;;
37239;SDS011;23130;48.760;9.178;2022-12-18T10:24:40;55.72;;;24.05;;
37239;SDS011;23130;48.760;9.178;2022-12-18T10:27:24;49.72;;;22.58;;
37239;SDS011;23130;48.760;9.178;2022-12-18T10:29:51;59.60;;;24.55;;
37239;SDS011;23130;48.760;9.178;2022-12-18T10:32:21;60.30;;;26.55;;
37239;SDS011;23130;48.760;9.178;2022-12-18T10:34:50;49.45;;;22.23;;
37239;SDS011;23130;48.760;9.178;2022-12-18T10:37:18;51.50;;;20.40;;
37239;SDS011;23130;48.760;9.178;2022-12-18T10:39:47;47.17;;;20.65;;
37239;SDS011;23130;48.760;9.178;2022-12-18T10:42:42;58.60;;;24.05;;
37239;SDS011;23130;48.760;9.178;2022-12-18T10:45:13;49.40;;;21.27;;
37239;SDS011;23130;48.760;9.178;2022-12-18T10:47:44;55.53;;;23.50;;
37239;SDS011;23130;48.760;9.178;2022-12-18T10:50:27;54.75;;;24.52;;
37239;SDS011;23130;48.760;9.178;2022-12-18T10:52:57;55.17;;;23.80;;
37239;SDS011;23130;48.760;9.178;2022-12-18T10:55:30;52.10;;;23.08;;
37239;SDS011;23130;48.760;9.178;2022-12-18T11:03:37;49.13;;;23.90;;
37239;SDS011;23130;48.760;9.178;2022-12-18T11:06:09;52.25;;;22.95;;
37239;SDS011;23130;48.760;9.178;2022-12-18T11:08:37;52.17;;;23.92;;
37239;SDS011;23130;48.760;9.178;2022-12-18T11:11:04;57.63;;;24.45;;
37239;SDS011;23130;48.760;9.178;2022-12-18T11:14:05;57.08;;;24.83;;
37239;SDS011;23130;48.760;9.178;2022-12-18T11:16:44;59.67;;;23.60;;
37239;SDS011;23130;48.760;9.178;2022-12-18T11:19:16;49.90;;;23.52;;
37239;SDS011;23130;48.760;9.178;2022-12-18T11:22:01;52.50;;;22.02;;
37239;SDS011;23130;48.760;9.178;2022-12-18T11:24:42;47.97;;;21.00;;
37239;SDS011;23130;48.760;9.178;2022-12-18T11:27:15;53.00;;;23.35;;
37239;SDS011;23130;48.760;9.178;2022-12-18T11:29:43;52.58;;;22.27;;
37239;SDS011;23130;48.760;9.178;2022-12-18T11:35:00;52.42;;;22.40;;
37239;SDS011;23130;48.760;9.178;2022-12-18T11:37:53;52.13;;;22.65;;
37239;SDS011;23130;48.760;9.178;2022-12-18T11:40:27;51.75;;;21.55;;
37239;SDS011;23130;48.760;9.178;2022-12-18T11:45:54;48.53;;;21.38;;
37239;SDS011;23130;48.760;9.178;2022-12-18T11:48:27;43.50;;;19.35;;
37239;SDS011;23130;48.760;9.178;2022-12-18T11:51:00;47.67;;;19.10;;
37239;SDS011;23130;48.760;9.178;2022-12-18T11:53:29;51.22;;;19.23;;
37239;SDS011;23130;48.760;9.178;2022-12-18T12:01:27;51.03;;;21.25;;
37239;SDS011;23130;48.760;9.178;2022-12-18T12:04:29;38.05;;;17.15;;
37239;SDS011;23130;48.760;9.178;2022-12-18T12:12:05;55.35;;;23.52;;
37239;SDS011;23130;48.760;9.178;2022-12-18T12:20:08;43.42;;;17.88;;
37239;SDS011;23130;48.760;9.178;2022-12-18T12:33:22;42.10;;;18.75;;
37239;SDS011;23130;48.760;9.178;2022-12-18T12:39:11;49.47;;;21.58;;
37239;SDS011;23130;48.760;9.178;2022-12-18T12:41:42;48.73;;;19.77;;
37239;SDS011;23130;48.760;9.178;2022-12-18T12:44:30;44.22;;;18.90;;
37239;SDS011;23130;48.760;9.178;2022-12-18T12:47:06;50.85;;;20.35;;
37239;SDS011;23130;48.760;9.178;2022-12-18T12:49:45;49.35;;;19.55;;
37239;SDS011;23130;48.760;9.178;2022-12-18T12:52:16;47.25;;;19.30;;
37239;SDS011;23130;48.760;9.178;2022-12-18T12:54:53;41.92;;;18.13;;
37239;SDS011;23130;48.760;9.178;2022-12-18T12:57:36;42.50;;;17.20;;
37239;SDS011;23130;48.760;9.178;2022-12-18T13:07:46;41.83;;;18.52;;
37239;SDS011;23130;48.760;9.178;2022-12-18T13:13:01;41.30;;;16.60;;
37239;SDS011;23130;48.760;9.178;2022-12-18T13:20:41;43.03;;;18.02;;
37239;SDS011;23130;48.760;9.178;2022-12-18T13:30:58;44.47;;;19.17;;
37239;SDS011;23130;48.760;9.178;2022-12-18T13:38:41;42.45;;;18.27;;
37239;SDS011;23130;48.760;9.178;2022-12-18T13:43:46;39.55;;;19.30;;
37239;SDS011;23130;48.760;9.178;2022-12-18T13:46:28;46.00;;;18.85;;
37239;SDS011;23130;48.760;9.178;2022-12-18T13:49:02;45.38;;;19.17;;
37239;SDS011;23130;48.760;9.178;2022-12-18T13:51:30;40.67;;;18.55;;
37239;SDS011;23130;48.760;9.178;2022-12-18T13:53:59;42.40;;;17.58;;
37239;SDS011;23130;48.760;9.178;2022-12-18T13:56:31;40.95;;;19.50;;
37239;SDS011;23130;48.760;9.178;2022-12-18T14:06:56;44.05;;;19.05;;
37239;SDS011;23130;48.760;9.178;2022-12-18T14:09:29;41.13;;;19.42;;
37239;SDS011;23130;48.760;9.178;2022-12-18T14:14:46;43.00;;;18.45;;
37239;SDS011;23130;48.760;9.178;2022-12-18T14:17:14;43.17;;;18.40;;
37239;SDS011;23130;48.760;9.178;2022-12-18T14:19:48;40.33;;;18.42;;
37239;SDS011;23130;48.760;9.178;2022-12-18T14:22:17;43.38;;;19.77;;
37239;SDS011;23130;48.760;9.178;2022-12-18T14:24:46;49.75;;;19.13;;
37239;SDS011;23130;48.760;9.178;2022-12-18T14:27:22;48.05;;;20.55;;
37239;SDS011;23130;48.760;9.178;2022-12-18T14:29:51;45.72;;;20.48;;
37239;SDS011;23130;48.760;9.178;2022-12-18T14:32:18;48.08;;;19.67;;
37239;SDS011;23130;48.760;9.178;2022-12-18T14:34:49;43.83;;;19.00;;
37239;SDS011;23130;48.760;9.178;2022-12-18T14:37:23;43.33;;;19.17;;
37239;SDS011;23130;48.760;9.178;2022-12-18T14:42:23;50.83;;;24.33;;
37239;SDS011;23130;48.760;9.178;2022-12-18T14:47:57;46.38;;;20.92;;
37239;SDS011;23130;48.760;9.178;2022-12-18T14:50:24;58.95;;;23.13;;
37239;SDS011;23130;48.760;9.178;2022-12-18T14:52:51;59.78;;;23.98;;
37239;SDS011;23130;48.760;9.178;2022-12-18T14:55:18;46.25;;;20.05;;
37239;SDS011;23130;48.760;9.178;2022-12-18T14:57:50;50.60;;;21.30;;
37239;SDS011;23130;48.760;9.178;2022-12-18T15:00:19;50.67;;;20.27;;
37239;SDS011;23130;48.760;9.178;2022-12-18T15:02:47;54.53;;;22.08;;
37239;SDS011;23130;48.760;9.178;2022-12-18T15:05:20;49.15;;;20.98;;
37239;SDS011;23130;48.760;9.178;2022-12-18T15:07:51;51.37;;;20.70;;
37239;SDS011;23130;48.760;9.178;2022-12-18T15:10:28;52.83;;;21.15;;
37239;SDS011;23130;48.760;9.178;2022-12-18T15:18:03;42.45;;;19.25;;
37239;SDS011;23130;48.760;9.178;2022-12-18T15:20:33;55.17;;;22.25;;
37239;SDS011;23130;48.760;9.178;2022-12-18T15:23:05;49.13;;;21.50;;
37239;SDS011;23130;48.760;9.178;2022-12-18T15:25:43;55.65;;;21.30;;
37239;SDS011;23130;48.760;9.178;2022-12-18T15:28:16;57.45;;;21.70;;
37239;SDS011;23130;48.760;9.178;2022-12-18T15:33:31;53.58;;;21.92;;
37239;SDS011;23130;48.760;9.178;2022-12-18T15:36:03;56.45;;;25.75;;
37239;SDS011;23130;48.760;9.178;2022-12-18T15:38:33;58.42;;;22.80;;
37239;SDS011;23130;48.760;9.178;2022-12-18T15:41:01;56.35;;;20.98;;
37239;SDS011;23130;48.760;9.178;2022-12-18T15:43:27;63.38;;;24.25;;
37239;SDS011;23130;48.760;9.178;2022-12-18T15:46:11;61.88;;;24.35;;
37239;SDS011;23130;48.760;9.178;2022-12-18T15:48:39;60.97;;;24.13;;
37239;SDS011;23130;48.760;9.178;2022-12-18T15:53:54;61.35;;;23.48;;
37239;SDS011;23130;48.760;9.178;2022-12-18T15:56:21;54.38;;;22.88;;
37239;SDS011;23130;48.760;9.178;2022-12-18T15:59:13;66.93;;;28.83;;
37239;SDS011;23130;48.760;9.178;2022-12-18T16:01:41;52.13;;;23.13;;
37239;SDS011;23130;48.760;9.178;2022-12-18T16:04:13;55.78;;;24.83;;
37239;SDS011;23130;48.760;9.178;2022-12-18T16:06:40;54.47;;;23.27;;
37239;SDS011;23130;48.760;9.178;2022-12-18T16:09:06;59.47;;;23.88;;
37239;SDS011;23130;48.760;9.178;2022-12-18T16:11:33;49.38;;;20.75;;
37239;SDS011;23130;48.760;9.178;2022-12-18T16:16:31;49.42;;;20.98;;
37239;SDS011;23130;48.760;9.178;2022-12-18T16:18:56;55.50;;;22.33;;
37239;SDS011;23130;48.760;9.178;2022-12-18T16:21:22;58.55;;;23.27;;
37239;SDS011;23130;48.760;9.178;2022-12-18T16:23:47;51.05;;;22.52;;
37239;SDS011;23130;48.760;9.178;2022-12-18T16:26:13;48.47;;;20.73;;
37239;SDS011;23130;48.760;9.178;2022-12-18T16:28:39;57.38;;;25.88;;
37239;SDS011;23130;48.760;9.178;2022-12-18T16:31:04;56.63;;;24.10;;
37239;SDS011;23130;48.760;9.178;2022-12-18T16:33:30;50.00;;;22.52;;
37239;SDS011;23130;48.760;9.178;2022-12-18T16:35:55;49.08;;;21.40;;
37239;SDS011;23130;48.760;9.178;2022-12-18T16:38:21;59.28;;;23.27;;
37239;SDS011;23130;48.760;9.178;2022-12-18T16:40:46;56.53;;;24.67;;
37239;SDS011;23130;48.760;9.178;2022-12-18T16:43:31;46.47;;;21.73;;
37239;SDS011;23130;48.760;9.178;2022-12-18T16:45:58;58.60;;;23.33;;
37239;SDS011;23130;48.760;9.178;2022-12-18T16:48:24;54.42;;;23.90;;
37239;SDS011;23130;48.760;9.178;2022-12-18T16:50:49;60.00;;;25.52;;
37239;SDS011;23130;48.760;9.178;2022-12-18T16:53:24;55.80;;;23.33;;
37239;SDS011;23130;48.760;9.178;2022-12-18T16:55:53;48.08;;;22.85;;
37239;SDS011;23130;48.760;9.178;2022-12-18T16:58:20;50.92;;;23.50;;
37239;SDS011;23130;48.760;9.178;2022-12-18T17:00:45;54.47;;;22.73;;
37239;SDS011;23130;48.760;9.178;2022-12-18T17:03:11;53.63;;;25.90;;
37239;SDS011;23130;48.760;9.178;2022-12-18T17:05:36;66.70;;;25.13;;
37239;SDS011;23130;48.760;9.178;2022-12-18T17:08:02;56.00;;;25.67;;
37239;SDS011;23130;48.760;9.178;2022-12-18T17:10:27;54.83;;;23.27;;
37239;SDS011;23130;48.760;9.178;2022-12-18T17:12:53;59.13;;;24.83;;